الصفحة الرئيسية
METAR-TAF:

METAR-TAF

مطار :

مطار أكادير المسيرة الدولي

أغادير, المغرب

دائرة عرض: 30-20N, خط طول: 009-24W, ارتفاع: 74 متر

مراقبة الطقس الحالي

تاريخ ووقت الإصدار 25 دقيقة قبل الساعة 20:00UTC
ريح 17 عقدة من الغرب/الشمال الغربي
درجة الحرارة 18°درجة مئوية
الرطوبة 68%
ضغط 1007 hPa
الرؤية 10 كم أو أكثر
غيوم قليلة على ارتفاع 2000 قدم

METAR: GMAD 212000Z 29017KT 9999 FEW020 18/12 Q1007 NOSIG

زمن: 21:25 (20:25 UTC)

توقعات

تاريخ ووقت الإصدار 3ساعات و 25 دقيقة قبل الساعة 17:00UTC
التوقعات صالحة من21 الساعة 18 UTC إلى 22 الساعة 24 UTC
ريح 14 عقدة من الغرب
الرؤية 10 كم أو أكثر
غيوم مفككة على ارتفاع 2000 قدم
أصبح
من 22 الساعة 00 UTC إلى 22 الساعة 02 UTC
ريح 8 عقدة من الجنوب
أصبح
من 22 الساعة 12 UTC إلى 22 الساعة 14 UTC
ريح 16 عقدة من الغرب
مؤقت
من 22 الساعة 12 UTC إلى 22 الساعة 22 UTC
ريح 16 عقدة من الغرب تتزايد حتى 28 عقدة

TAF: GMAD 211700Z 2118/2224 26014KT 9999 BKN020 BECMG 2200/2202 18008KT BECMG 2212/2214 26016KT TEMPO 2212/2222 26016G28KT

أرصاد الطقس والتوقعات من أكثر من 4000 مطار (تقارير الطقس للمطار METAR والتنبؤ بالطقس بالمطارTAF).

المحطات المتاحة هي النقط الصفراء والحمراء على الخريطة.

حرك المؤشر فوق النقطة لمعرفة اسم المحطة.

ثم انقر لمعرفة أرصاد وتوقعات الطقس.

لتغيير الخارطة: اضغط على الأزرار الخضراء مع رمز الصليب الأسود للتكبير. على الزر الأخضر مع شرطة للتصغير، أو على الأسهم الخضراء للخرائط المجاورة.


METAR-TAF: